Time;durP1;ratioP1;P1;durP2;ratioP2;P2;SDS_P1;SDS_P2;PMS_P1;PMS_P2;Temp;Humidity;BMP_temperature;BMP_pressure;BME280_temperature;BME280_humidity;BME280_pressure;Samples;Min_cycle;Max_cycle;Signal;HPM_P1;HPM_P2
2021/06/09 00:00:10;;;;;;;23.30;20.58;;;;;;;15.68;100.00;96703.13;4986747;28;20101;-59
2021/06/09 00:02:38;;;;;;;24.58;21.13;;;;;;;15.64;100.00;96705.25;4984582;28;20526;-57
2021/06/09 00:05:07;;;;;;;24.08;21.45;;;;;;;15.61;100.00;96710.91;4988647;28;20073;-60
2021/06/09 00:07:36;;;;;;;24.58;22.02;;;;;;;15.63;100.00;96701.78;4988744;28;20073;-60
2021/06/09 00:10:06;;;;;;;23.40;20.80;;;;;;;15.66;100.00;96712.09;4989668;28;20089;-59
2021/06/09 00:12:35;;;;;;;24.90;21.35;;;;;;;15.61;100.00;96709.06;4968518;28;20082;-56
2021/06/09 00:15:04;;;;;;;26.17;21.75;;;;;;;15.56;100.00;96703.44;4987919;28;20062;-59
2021/06/09 00:17:32;;;;;;;25.02;22.33;;;;;;;15.62;100.00;96701.91;4982799;28;20062;-58
2021/06/09 00:20:01;;;;;;;26.27;21.48;;;;;;;15.40;100.00;96706.13;4987675;28;20061;-56
2021/06/09 00:22:29;;;;;;;23.95;21.42;;;;;;;15.52;100.00;96706.59;4984446;28;20069;-59
2021/06/09 00:24:59;;;;;;;27.15;22.08;;;;;;;15.71;100.00;96700.94;4990048;28;20077;-56
2021/06/09 00:27:27;;;;;;;26.13;21.50;;;;;;;15.57;100.00;96704.28;4981740;28;21531;-60
2021/06/09 00:29:55;;;;;;;28.45;22.20;;;;;;;15.53;100.00;96698.47;4992348;28;20081;-59
2021/06/09 00:32:23;;;;;;;26.50;23.38;;;;;;;15.36;100.00;96695.00;4984967;28;20077;-59
2021/06/09 00:34:51;;;;;;;25.25;22.23;;;;;;;15.42;100.00;96697.00;4984876;28;20069;-59
2021/06/09 00:37:19;;;;;;;27.63;23.17;;;;;;;15.42;100.00;96704.97;4990317;28;20090;-59
2021/06/09 00:39:46;;;;;;;26.33;22.77;;;;;;;15.57;100.00;96689.16;4988681;28;20081;-60
2021/06/09 00:42:20;;;;;;;26.80;23.88;;;;;;;15.44;100.00;96700.31;4983734;28;20062;-64
2021/06/09 00:44:49;;;;;;;28.63;22.77;;;;;;;15.49;100.00;96689.19;4983952;28;20556;-60
2021/06/09 00:47:21;;;;;;;30.30;23.40;;;;;;;15.34;100.00;96691.69;4984338;28;20070;-61
2021/06/09 00:49:50;;;;;;;26.27;23.02;;;;;;;15.37;100.00;96685.22;4984521;28;20081;-60
2021/06/09 00:52:23;;;;;;;32.10;24.38;;;;;;;15.20;100.00;96693.19;4990326;28;20078;-60
2021/06/09 00:54:51;;;;;;;27.25;23.63;;;;;;;15.35;100.00;96679.25;4985322;28;20085;-58
2021/06/09 00:57:22;;;;;;;29.83;24.92;;;;;;;15.32;100.00;96685.72;4986363;28;20072;-60
2021/06/09 00:59:50;;;;;;;28.80;23.90;;;;;;;15.38;100.00;96677.09;4984646;28;20066;-60
2021/06/09 01:02:18;;;;;;;25.25;22.55;;;;;;;15.28;100.00;96688.88;4989131;28;20081;-60
2021/06/09 01:04:46;;;;;;;26.98;23.20;;;;;;;15.45;100.00;96685.22;4982254;28;20542;-60
2021/06/09 01:07:16;;;;;;;26.40;22.10;;;;;;;15.49;100.00;96677.72;4987977;28;20079;-60
2021/06/09 01:09:44;;;;;;;26.37;23.40;;;;;;;15.20;100.00;96679.91;4986957;28;20082;-60
2021/06/09 01:12:12;;;;;;;27.20;22.45;;;;;;;15.37;100.00;96687.88;4985551;28;20494;-60
2021/06/09 01:14:41;;;;;;;30.17;22.73;;;;;;;15.29;100.00;96698.50;4983847;28;20066;-61
2021/06/09 01:17:09;;;;;;;25.67;22.30;;;;;;;15.23;100.00;96702.66;4985316;28;20081;-59
2021/06/09 01:19:37;;;;;;;26.33;22.45;;;;;;;15.18;100.00;96697.88;4986139;28;20487;-59
2021/06/09 01:22:07;;;;;;;27.35;23.88;;;;;;;15.19;100.00;96693.38;4986571;28;20096;-59
2021/06/09 01:24:36;;;;;;;26.27;22.02;;;;;;;15.43;100.00;96692.50;4990069;28;20074;-60
2021/06/09 01:27:04;;;;;;;30.20;23.83;;;;;;;15.18;100.00;96702.34;4983061;28;20060;-58
2021/06/09 01:29:32;;;;;;;26.67;23.27;;;;;;;15.46;100.00;96694.84;4985623;28;20073;-60
2021/06/09 01:32:00;;;;;;;28.02;23.67;;;;;;;15.47;100.00;96687.69;4990348;28;20061;-59
2021/06/09 01:34:28;;;;;;;28.83;23.08;;;;;;;15.48;100.00;96692.00;4985592;28;20074;-59
2021/06/09 01:36:56;;;;;;;28.90;23.98;;;;;;;15.35;100.00;96698.69;4992455;28;20073;-60
2021/06/09 01:39:26;;;;;;;33.90;25.45;;;;;;;15.30;100.00;96697.50;4987079;28;20469;-58
2021/06/09 01:41:54;;;;;;;27.80;23.83;;;;;;;15.17;100.00;96701.53;4987863;28;20453;-60
2021/06/09 01:44:22;;;;;;;27.65;24.65;;;;;;;14.96;100.00;96702.00;4994192;28;20062;-61
2021/06/09 01:46:53;;;;;;;29.20;25.67;;;;;;;14.98;100.00;96698.38;4990194;28;20540;-61
2021/06/09 01:49:21;;;;;;;30.95;25.63;;;;;;;14.98;100.00;96695.72;4991267;28;20127;-60
2021/06/09 01:51:49;;;;;;;30.27;25.55;;;;;;;15.09;100.00;96693.53;4986244;28;20070;-59
2021/06/09 01:54:16;;;;;;;30.85;26.23;;;;;;;15.08;100.00;96693.72;4988699;28;20446;-60
2021/06/09 01:56:46;;;;;;;32.15;25.40;;;;;;;15.04;100.00;96689.75;4987259;28;20062;-57
2021/06/09 01:59:16;;;;;;;30.63;25.35;;;;;;;15.00;100.00;96685.75;4987580;28;20081;-60
2021/06/09 02:01:46;;;;;;;33.30;25.30;;;;;;;14.95;100.00;96695.03;4988915;28;20074;-60
2021/06/09 02:04:16;;;;;;;30.13;26.20;;;;;;;15.16;100.00;96685.72;4989547;28;20533;-58
2021/06/09 02:06:45;;;;;;;28.60;25.50;;;;;;;15.13;100.00;96691.38;4987678;28;20077;-60
2021/06/09 02:09:13;;;;;;;29.23;24.92;;;;;;;15.15;100.00;96692.88;4987492;28;20072;-59
2021/06/09 02:11:44;;;;;;;29.52;25.38;;;;;;;15.27;100.00;96698.66;4983358;28;20073;-60
2021/06/09 02:14:14;;;;;;;27.48;24.23;;;;;;;15.29;100.00;96686.06;4988918;28;20067;-61
2021/06/09 02:16:48;;;;;;;29.13;25.48;;;;;;;15.08;100.00;96693.72;4990857;28;20066;-60
2021/06/09 02:19:16;;;;;;;31.13;26.08;;;;;;;15.23;100.00;96688.56;4989646;28;20081;-59
2021/06/09 02:21:45;;;;;;;28.25;25.17;;;;;;;15.37;100.00;96679.91;4988454;28;20102;-59
2021/06/09 02:24:13;;;;;;;29.45;24.58;;;;;;;15.53;100.00;96687.84;4987625;28;20537;-60
2021/06/09 02:26:42;;;;;;;27.40;24.40;;;;;;;15.23;100.00;96685.91;4984674;28;20069;-59
2021/06/09 02:29:12;;;;;;;29.17;24.83;;;;;;;15.43;100.00;96685.34;4987054;28;20068;-60
2021/06/09 02:31:44;;;;;;;27.70;24.20;;;;;;;15.44;100.00;96688.84;4982700;28;20096;-60
2021/06/09 02:34:13;;;;;;;29.80;24.52;;;;;;;15.41;100.00;96691.84;4993371;28;20078;-61
2021/06/09 02:36:42;;;;;;;30.58;26.25;;;;;;;15.36;100.00;96688.88;4991367;28;20081;-61
2021/06/09 02:39:10;;;;;;;26.95;23.95;;;;;;;15.44;100.00;96687.00;4988747;28;20062;-60
2021/06/09 02:41:38;;;;;;;28.90;24.35;;;;;;;15.71;100.00;96684.16;4989403;28;20078;-59
2021/06/09 02:44:07;;;;;;;26.30;23.50;;;;;;;15.63;100.00;96688.47;4982087;28;20046;-58
2021/06/09 02:46:38;;;;;;;28.55;24.02;;;;;;;15.42;100.00;96681.06;4994253;28;22188;-59
2021/06/09 02:49:11;;;;;;;27.13;23.67;;;;;;;15.65;100.00;96686.47;4985929;28;20758;-59
2021/06/09 02:51:42;;;;;;;30.42;23.25;;;;;;;15.70;100.00;96680.69;4989810;28;20082;-59
2021/06/09 02:54:16;;;;;;;30.10;24.52;;;;;;;15.37;100.00;96679.91;4985051;28;20076;-58
2021/06/09 02:56:51;;;;;;;30.88;25.48;;;;;;;15.32;100.00;96684.91;4988167;28;20150;-59
2021/06/09 02:59:31;;;;;;;28.30;25.10;;;;;;;15.59;100.00;96687.16;4979493;28;20070;-60
2021/06/09 03:02:04;;;;;;;32.80;26.58;;;;;;;15.59;100.00;96683.69;4986844;28;20613;-59
2021/06/09 03:05:22;;;;;;;28.92;24.45;;;;;;;15.01;100.00;96688.25;4982408;28;20045;-58
2021/06/09 03:08:11;;;;;;;28.77;25.25;;;;;;;15.07;100.00;96687.59;4985239;28;20757;-59
2021/06/09 03:10:48;;;;;;;32.08;26.05;;;;;;;15.01;100.00;96685.59;4985596;28;20502;-60
2021/06/09 03:13:26;;;;;;;30.98;25.67;;;;;;;15.17;100.00;96688.25;4992120;28;20081;-60
2021/06/09 03:15:59;;;;;;;30.48;26.20;;;;;;;14.95;100.00;96675.63;4990350;28;20078;-59
2021/06/09 03:18:29;;;;;;;29.95;26.20;;;;;;;14.92;100.00;96687.41;4985472;28;20081;-58
2021/06/09 03:21:01;;;;;;;30.80;25.27;;;;;;;15.05;100.00;96688.75;4987229;28;20070;-59
2021/06/09 03:23:44;;;;;;;30.45;25.98;;;;;;;14.90;100.00;96692.06;4982969;28;20097;-60
2021/06/09 03:26:15;;;;;;;30.27;26.05;;;;;;;15.08;100.00;96691.06;4985028;28;20075;-60
2021/06/09 03:28:52;;;;;;;32.95;27.08;;;;;;;15.16;100.00;96689.22;4987676;28;20068;-60
2021/06/09 03:31:24;;;;;;;33.70;26.65;;;;;;;14.86;100.00;96696.03;4984506;28;20082;-59
2021/06/09 03:33:53;;;;;;;34.67;25.52;;;;;;;14.87;100.00;96697.72;4985594;28;20097;-60
2021/06/09 03:36:25;;;;;;;31.48;25.42;;;;;;;15.22;100.00;96690.38;4986024;28;20081;-59
2021/06/09 03:38:56;;;;;;;33.80;25.40;;;;;;;15.15;100.00;96692.88;4983939;28;20080;-60
2021/06/09 03:41:26;;;;;;;31.90;25.63;;;;;;;15.18;100.00;96681.91;4982096;28;20660;-60
2021/06/09 03:43:55;;;;;;;29.70;26.42;;;;;;;15.13;100.00;96684.22;4986994;28;20065;-60
2021/06/09 03:46:24;;;;;;;30.75;25.20;;;;;;;15.07;100.00;96676.97;4977072;28;20067;-59
2021/06/09 03:48:54;;;;;;;32.05;26.40;;;;;;;15.01;100.00;96690.06;4987690;28;20088;-61
2021/06/09 03:51:24;;;;;;;29.02;25.20;;;;;;;15.42;100.00;96682.88;4981106;28;20070;-60
2021/06/09 03:53:53;;;;;;;28.63;24.70;;;;;;;15.73;100.00;96679.53;4982018;28;20081;-57
2021/06/09 03:56:23;;;;;;;27.15;24.20;;;;;;;15.97;100.00;96682.09;4989075;28;20471;-59
2021/06/09 03:58:52;;;;;;;27.83;23.70;;;;;;;16.78;100.00;96671.97;4985274;28;20081;-58
2021/06/09 04:01:21;;;;;;;26.42;23.48;;;;;;;17.28;100.00;96679.38;4982022;28;20160;-60
2021/06/09 04:03:49;;;;;;;24.35;21.58;;;;;;;16.92;100.00;96675.69;4989109;28;20483;-59
2021/06/09 04:06:18;;;;;;;26.27;23.45;;;;;;;16.99;100.00;96672.13;4982090;28;20077;-56
2021/06/09 04:08:48;;;;;;;24.20;21.60;;;;;;;16.35;100.00;96671.56;4983404;28;20069;-60
2021/06/09 04:11:19;;;;;;;25.63;22.92;;;;;;;16.25;100.00;96676.28;4982837;28;20065;-58
2021/06/09 04:13:48;;;;;;;26.85;23.75;;;;;;;15.92;100.00;96681.75;4982265;28;20073;-61
2021/06/09 04:16:18;;;;;;;27.73;24.27;;;;;;;15.73;100.00;96683.00;4979417;28;20081;-60
2021/06/09 04:18:48;;;;;;;28.05;23.77;;;;;;;15.70;100.00;96690.50;4986914;28;20074;-60
2021/06/09 04:21:16;;;;;;;32.88;24.45;;;;;;;15.89;100.00;96687.41;4982744;28;20074;-60
2021/06/09 04:23:45;;;;;;;29.38;24.00;;;;;;;15.74;100.00;96694.47;4988072;28;20069;-60
2021/06/09 04:26:16;;;;;;;25.92;23.13;;;;;;;16.09;100.00;96680.69;4981804;28;20055;-60
2021/06/09 04:28:45;;;;;;;27.33;24.02;;;;;;;16.35;100.00;96688.38;4983047;28;20545;-59
2021/06/09 04:31:14;;;;;;;28.13;25.13;;;;;;;15.96;100.00;96693.69;4988414;28;20066;-59
2021/06/09 04:33:44;;;;;;;27.50;24.20;;;;;;;16.03;100.00;96693.84;4986462;28;20096;-60
2021/06/09 04:36:13;;;;;;;27.92;23.52;;;;;;;16.47;100.00;96690.63;4984264;28;20069;-59
2021/06/09 04:38:41;;;;;;;27.10;24.17;;;;;;;16.10;100.00;96700.13;4984431;28;20178;-60
2021/06/09 04:41:10;;;;;;;27.75;22.95;;;;;;;16.23;100.00;96697.75;4984475;28;20076;-60
2021/06/09 04:43:40;;;;;;;26.90;24.10;;;;;;;16.61;100.00;96688.03;4986309;28;20074;-60
2021/06/09 04:46:08;;;;;;;28.27;21.92;;;;;;;16.59;100.00;96689.22;4984042;28;20077;-60
2021/06/09 04:48:36;;;;;;;24.50;21.50;;;;;;;16.73;100.00;96691.13;4985496;28;20474;-59
2021/06/09 04:51:05;;;;;;;23.92;21.35;;;;;;;17.08;100.00;96691.56;4993668;28;20548;-61
2021/06/09 04:53:33;;;;;;;23.90;21.35;;;;;;;17.84;100.00;96684.31;4983168;28;20066;-60
2021/06/09 04:56:00;;;;;;;22.38;19.85;;;;;;;19.11;100.00;96682.06;4988838;28;20479;-59
2021/06/09 04:58:28;;;;;;;21.70;19.38;;;;;;;19.33;100.00;96680.16;4982598;28;20070;-60
2021/06/09 05:00:59;;;;;;;22.45;18.52;;;;;;;21.07;100.00;96674.56;4987402;28;20074;-60
2021/06/09 05:03:27;;;;;;;20.27;18.27;;;;;;;20.00;100.00;96673.41;4980773;28;20470;-61
2021/06/09 05:05:55;;;;;;;22.48;17.73;;;;;;;21.62;100.00;96669.81;4987048;28;20057;-60
2021/06/09 05:08:23;;;;;;;19.70;17.70;;;;;;;21.37;100.00;96677.72;4981560;28;20066;-59
2021/06/09 05:10:51;;;;;;;19.80;17.70;;;;;;;22.02;100.00;96675.09;4984322;28;20080;-60
2021/06/09 05:13:25;;;;;;;20.27;18.20;;;;;;;22.64;100.00;96665.56;4981439;28;20557;-59
2021/06/09 05:15:55;;;;;;;20.85;18.70;;;;;;;22.28;100.00;96675.03;4982564;28;20086;-61
2021/06/09 05:18:26;;;;;;;19.83;17.47;;;;;;;22.27;100.00;96669.88;4985261;28;20065;-60
2021/06/09 05:20:55;;;;;;;19.60;17.52;;;;;;;22.04;100.00;96676.53;4986077;28;20516;-60
2021/06/09 05:23:28;;;;;;;19.63;17.60;;;;;;;21.78;100.00;96674.75;4987056;28;24068;-61
2021/06/09 05:25:57;;;;;;;19.17;17.38;;;;;;;21.94;100.00;96670.78;4989101;28;20544;-61
2021/06/09 05:28:32;;;;;;;19.40;17.45;;;;;;;21.98;100.00;96671.19;4982430;28;20085;-60
2021/06/09 05:31:01;;;;;;;19.73;17.80;;;;;;;21.29;100.00;96669.81;4986563;28;20089;-61
2021/06/09 05:33:32;;;;;;;20.63;16.90;;;;;;;22.93;100.00;96666.84;4984603;28;20526;-61
2021/06/09 05:35:59;;;;;;;;;;;;;;;22.86;100.00;96662.53;4980150;28;20066;-59
2021/06/09 05:38:28;;;;;;;19.45;17.40;;;;;;;21.74;100.00;96670.00;4989272;28;19968;-58
2021/06/09 05:40:57;;;;;;;18.52;16.65;;;;;;;22.51;100.00;96662.94;4980846;28;20065;-58
2021/06/09 05:43:26;;;;;;;18.77;16.97;;;;;;;22.27;100.00;96673.38;4988397;28;20112;-59
2021/06/09 05:45:56;;;;;;;19.52;17.25;;;;;;;22.27;100.00;96677.94;4986348;28;20500;-58
2021/06/09 05:48:24;;;;;;;19.55;17.13;;;;;;;21.72;100.00;96672.91;4984988;28;20486;-61
2021/06/09 05:50:55;;;;;;;19.63;17.45;;;;;;;21.86;100.00;96673.69;4985302;28;20517;-59
2021/06/09 05:53:24;;;;;;;18.73;16.80;;;;;;;22.25;100.00;96678.13;4983413;28;20089;-58
2021/06/09 05:55:52;;;;;;;19.30;17.13;;;;;;;22.10;100.00;96676.72;4981270;28;20061;-60
2021/06/09 05:58:21;;;;;;;21.27;18.98;;;;;;;22.02;100.00;96680.47;4985816;28;20565;-62
2021/06/09 06:01:03;;;;;;;19.92;17.90;;;;;;;21.55;100.00;96685.13;4981917;28;20084;-61
2021/06/09 06:03:32;;;;;;;19.67;17.75;;;;;;;23.20;100.00;96678.25;4985623;28;20548;-64
2021/06/09 06:06:04;;;;;;;21.58;19.25;;;;;;;21.43;100.00;96686.75;4985829;28;20070;-64
2021/06/09 06:08:34;;;;;;;21.50;19.25;;;;;;;22.60;100.00;96677.75;4989197;28;20074;-63
2021/06/09 06:11:05;;;;;;;21.63;19.50;;;;;;;21.72;100.00;96680.97;4985004;28;20062;-64
2021/06/09 06:13:33;;;;;;;21.67;19.38;;;;;;;21.09;100.00;96677.84;5023832;23;20084;-57
2021/06/09 06:16:03;;;;;;;22.38;20.02;;;;;;;21.43;100.00;96673.34;5015748;28;20077;-60
2021/06/09 06:18:33;;;;;;;23.40;20.93;;;;;;;21.44;100.00;96681.22;5018994;28;20465;-59
2021/06/09 06:21:05;;;;;;;22.67;20.40;;;;;;;21.69;100.00;96677.88;5017390;28;20495;-60
2021/06/09 06:23:35;;;;;;;25.95;21.70;;;;;;;21.59;100.00;96675.59;5018705;28;20061;-57
2021/06/09 06:26:12;;;;;;;23.42;20.88;;;;;;;21.48;100.00;96682.44;5005231;28;20065;-57
2021/06/09 06:28:41;;;;;;;23.63;20.53;;;;;;;20.95;100.00;96684.25;5008878;28;20081;-57
2021/06/09 06:31:11;;;;;;;23.98;21.58;;;;;;;21.84;100.00;96680.31;5003234;28;20089;-58
2021/06/09 06:33:41;;;;;;;25.17;21.30;;;;;;;21.07;100.00;96678.06;5007935;28;20104;-57
2021/06/09 06:36:12;;;;;;;23.67;21.20;;;;;;;21.33;100.00;96681.78;5009101;28;20065;-55
2021/06/09 06:38:41;;;;;;;24.25;21.65;;;;;;;21.85;100.00;96682.81;5005816;28;20066;-57
2021/06/09 06:41:10;;;;;;;25.00;22.30;;;;;;;21.74;100.00;96684.25;5006418;28;20073;-56
2021/06/09 06:43:39;;;;;;;25.02;22.40;;;;;;;21.68;100.00;96686.94;5006692;28;20065;-57
2021/06/09 06:46:11;;;;;;;24.25;21.67;;;;;;;21.34;100.00;96691.53;5007688;28;20069;-57
2021/06/09 06:48:40;;;;;;;25.65;22.80;;;;;;;21.97;100.00;96682.97;5008349;28;20074;-58
2021/06/09 06:51:11;;;;;;;25.38;22.70;;;;;;;21.89;100.00;96681.34;5008653;28;20058;-57
2021/06/09 06:53:44;;;;;;;26.73;23.20;;;;;;;21.31;100.00;96689.22;5004020;28;20541;-57
2021/06/09 06:56:13;;;;;;;24.42;21.92;;;;;;;21.53;100.00;96688.00;5008705;28;20069;-58
2021/06/09 06:58:48;;;;;;;25.35;22.73;;;;;;;21.53;100.00;96688.00;5003640;28;20061;-59
2021/06/09 07:01:17;;;;;;;26.73;21.60;;;;;;;21.31;100.00;96697.28;5005188;28;20077;-58
2021/06/09 07:03:45;;;;;;;26.52;20.73;;;;;;;21.52;100.00;96697.09;5008765;28;20117;-58
2021/06/09 07:06:15;;;;;;;25.13;21.15;;;;;;;21.56;100.00;96694.81;5005746;28;20544;-60
2021/06/09 07:08:44;;;;;;;24.40;20.10;;;;;;;21.72;100.00;96697.06;5004022;28;20062;-60
2021/06/09 07:11:12;;;;;;;22.98;20.58;;;;;;;22.21;100.00;96692.22;5007911;28;20066;-59
2021/06/09 07:13:40;;;;;;;22.92;20.52;;;;;;;22.16;100.00;96692.00;5004462;28;20088;-56
2021/06/09 07:16:10;;;;;;;23.27;20.85;;;;;;;22.97;100.00;96686.06;5006869;28;20093;-57
2021/06/09 07:18:44;;;;;;;23.48;20.98;;;;;;;22.67;100.00;96688.47;5008775;28;20088;-58
2021/06/09 07:21:17;;;;;;;24.25;21.42;;;;;;;22.89;100.00;96689.81;5004905;28;20076;-53
2021/06/09 07:23:45;;;;;;;22.15;19.90;;;;;;;23.03;100.00;96695.13;5003114;28;20066;-58
2021/06/09 07:26:14;;;;;;;23.70;21.02;;;;;;;22.58;100.00;96692.47;5006500;28;20066;-56
2021/06/09 07:28:45;;;;;;;25.05;21.38;;;;;;;22.51;100.00;96692.50;5004088;28;20108;-57
2021/06/09 07:31:15;;;;;;;24.42;21.85;;;;;;;22.19;100.00;96703.16;5006327;28;20076;-56
2021/06/09 07:33:45;;;;;;;24.63;22.02;;;;;;;22.23;100.00;96704.41;5005766;28;20085;-54
2021/06/09 07:36:14;;;;;;;22.95;20.55;;;;;;;22.60;100.00;96714.56;5006048;28;20053;-55
2021/06/09 07:38:46;;;;;;;21.95;19.65;;;;;;;22.66;100.00;96711.84;5006081;28;20146;-55
2021/06/09 07:41:15;;;;;;;22.35;19.60;;;;;;;23.16;100.00;96712.00;4988899;28;20057;-55
2021/06/09 07:43:45;;;;;;;23.42;21.08;;;;;;;23.09;100.00;96713.94;5004259;28;20084;-53
2021/06/09 07:46:15;;;;;;;23.00;20.70;;;;;;;23.31;100.00;96708.19;5006176;28;20482;-59
2021/06/09 07:48:47;;;;;;;22.77;20.38;;;;;;;24.10;100.00;96701.25;5007590;28;20450;-58
2021/06/09 07:51:15;;;;;;;23.75;21.35;;;;;;;24.42;100.00;96707.31;5003472;28;20065;-58
2021/06/09 07:53:46;;;;;;;22.92;20.55;;;;;;;25.02;100.00;96709.25;5006700;28;20497;-56
2021/06/09 07:56:16;;;;;;;;;;;;;;;25.23;100.00;96706.03;5002594;28;20069;-58
2021/06/09 07:58:47;;;;;;;23.40;21.00;;;;;;;24.92;100.00;96707.09;5006727;28;19960;-59
2021/06/09 08:01:15;;;;;;;22.67;20.35;;;;;;;25.12;100.00;96703.28;5003978;28;20088;-55
2021/06/09 08:03:44;;;;;;;22.25;20.05;;;;;;;24.13;100.00;96708.88;5005452;28;20702;-57
2021/06/09 08:06:15;;;;;;;23.05;20.65;;;;;;;24.83;100.00;96713.84;5004200;28;20476;-59
2021/06/09 08:08:46;;;;;;;22.00;19.65;;;;;;;24.89;100.00;96707.53;5006488;28;20072;-55
2021/06/09 08:11:14;;;;;;;21.17;18.88;;;;;;;25.55;100.00;96711.94;5001139;28;20458;-57
2021/06/09 08:13:43;;;;;;;23.10;20.02;;;;;;;25.42;100.00;96714.84;5007053;28;20070;-58
2021/06/09 08:16:12;;;;;;;22.65;20.35;;;;;;;25.80;100.00;96713.63;5002079;28;20085;-59
2021/06/09 08:18:40;;;;;;;23.77;21.33;;;;;;;25.40;100.00;96714.28;5006622;28;20478;-59
2021/06/09 08:21:12;;;;;;;21.52;19.33;;;;;;;25.41;100.00;96715.09;5003536;28;20065;-58
2021/06/09 08:23:42;;;;;;;21.92;19.58;;;;;;;25.32;100.00;96723.53;5003643;28;20544;-53
2021/06/09 08:26:13;;;;;;;;;;;;;;;25.76;100.00;96724.06;4996091;28;20081;-57
2021/06/09 08:28:43;;;;;;;21.02;18.83;;;;;;;25.40;100.00;96724.28;5009990;28;19952;-58
2021/06/09 08:31:12;;;;;;;22.70;20.45;;;;;;;25.98;100.00;96726.19;5001655;28;20092;-57
2021/06/09 08:33:41;;;;;;;22.45;20.25;;;;;;;26.19;100.00;96725.59;5009035;28;20093;-57
2021/06/09 08:36:13;;;;;;;22.73;20.50;;;;;;;26.75;96.73;96721.38;5001619;28;20074;-56
2021/06/09 08:38:41;;;;;;;21.08;18.88;;;;;;;25.95;100.00;96726.69;5004338;28;20085;-56
2021/06/09 08:41:12;;;;;;;22.07;19.87;;;;;;;26.13;96.53;96726.56;5002870;28;20637;-57
2021/06/09 08:43:43;;;;;;;21.38;19.13;;;;;;;26.50;94.39;96720.88;5004119;28;20485;-59
2021/06/09 08:46:11;;;;;;;20.52;18.10;;;;;;;26.09;95.57;96719.97;5004755;28;20081;-58
2021/06/09 08:48:41;;;;;;;19.35;17.40;;;;;;;26.54;89.69;96710.41;5007645;28;20483;-58
2021/06/09 08:51:11;;;;;;;20.20;18.05;;;;;;;26.09;90.65;96716.47;5004815;28;20076;-58
2021/06/09 08:53:42;;;;;;;19.67;17.67;;;;;;;25.93;99.50;96720.69;5002024;28;20077;-58
2021/06/09 08:56:12;;;;;;;19.88;17.98;;;;;;;25.77;100.00;96725.72;5006279;28;20069;-58
2021/06/09 08:58:40;;;;;;;18.05;16.23;;;;;;;25.70;91.93;96713.34;5002276;28;20065;-60
2021/06/09 09:01:10;;;;;;;19.88;17.77;;;;;;;26.28;91.40;96713.34;5006021;28;20158;-58
2021/06/09 09:03:40;;;;;;;19.80;17.80;;;;;;;25.76;89.29;96717.84;5004934;28;20081;-58
2021/06/09 09:06:08;;;;;;;19.67;17.67;;;;;;;26.27;86.11;96717.13;5003262;28;20080;-59
2021/06/09 09:08:36;;;;;;;19.42;17.33;;;;;;;25.72;90.71;96724.78;5002415;28;20077;-56
2021/06/09 09:11:05;;;;;;;17.85;15.98;;;;;;;26.20;88.12;96713.72;5005738;28;20081;-58
2021/06/09 09:13:35;;;;;;;15.15;13.65;;;;;;;25.83;96.25;96721.28;5002516;28;20062;-59
2021/06/09 09:16:04;;;;;;;18.52;16.63;;;;;;;26.62;83.14;96721.66;5005985;28;20077;-58
2021/06/09 09:18:40;;;;;;;17.38;15.57;;;;;;;26.01;76.01;96729.25;5003261;28;20739;-56
2021/06/09 09:21:11;;;;;;;17.30;15.35;;;;;;;26.46;75.95;96722.34;5002530;28;20061;-58
2021/06/09 09:23:50;;;;;;;17.13;15.52;;;;;;;26.57;82.66;96720.75;5003644;28;20631;-56
2021/06/09 09:26:23;;;;;;;15.57;14.13;;;;;;;27.02;72.81;96720.81;5003606;28;20074;-58
2021/06/09 09:29:08;;;;;;;17.35;15.63;;;;;;;26.50;84.34;96723.59;5000686;28;20085;-57
2021/06/09 09:31:54;;;;;;;19.75;17.80;;;;;;;26.53;86.21;96728.47;5004837;28;20096;-55
2021/06/09 09:34:33;;;;;;;17.58;15.85;;;;;;;26.52;76.58;96724.16;5002489;28;20080;-54
2021/06/09 09:37:13;;;;;;;16.88;15.02;;;;;;;26.18;82.20;96715.84;4999957;28;20077;-59
2021/06/09 09:39:42;;;;;;;17.45;15.68;;;;;;;26.76;77.94;96722.19;5003519;28;20078;-56
2021/06/09 09:42:34;;;;;;;15.75;14.15;;;;;;;26.52;80.93;96724.16;5005049;28;20081;-57
2021/06/09 09:45:24;;;;;;;15.02;13.43;;;;;;;26.72;79.95;96726.44;4985436;28;20074;-55
2021/06/09 09:48:10;;;;;;;18.55;15.15;;;;;;;26.55;84.28;96729.09;5003974;28;20074;-58
2021/06/09 09:50:41;;;;;;;15.63;14.00;;;;;;;26.57;71.64;96721.56;5002959;28;20077;-58
2021/06/09 09:53:20;;;;;;;14.77;13.20;;;;;;;27.08;68.25;96719.00;5002092;28;20084;-58
2021/06/09 09:56:01;;;;;;;17.95;15.00;;;;;;;26.94;69.77;96723.88;5003280;28;20066;-58
2021/06/09 09:58:30;;;;;;;14.98;13.40;;;;;;;27.37;71.09;96715.22;5009605;28;20513;-54
2021/06/09 10:01:18;;;;;;;12.20;10.50;;;;;;;26.54;63.40;96724.75;5006470;28;20777;-58
2021/06/09 10:03:48;;;;;;;11.98;10.77;;;;;;;26.49;69.01;96711.91;5005224;28;20081;-57
2021/06/09 10:06:18;;;;;;;12.40;11.20;;;;;;;26.85;66.09;96717.22;5006993;28;20474;-57
2021/06/09 10:08:46;;;;;;;11.43;9.75;;;;;;;26.64;65.69;96718.72;5005817;28;20081;-57
2021/06/09 10:11:16;;;;;;;13.35;11.60;;;;;;;27.05;63.26;96708.63;5004818;28;20563;-50
2021/06/09 10:13:45;;;;;;;14.23;12.73;;;;;;;26.62;66.19;96715.41;5007993;28;20069;-56
2021/06/09 10:16:29;;;;;;;12.85;11.52;;;;;;;27.45;64.66;96709.38;5004806;28;20081;-58
2021/06/09 10:19:03;;;;;;;12.77;11.55;;;;;;;27.50;63.53;96708.66;5010423;28;20061;-55
2021/06/09 10:21:31;;;;;;;12.32;11.13;;;;;;;27.91;63.69;96706.63;5005122;28;20333;-55
2021/06/09 10:24:06;;;;;;;13.60;11.48;;;;;;;27.82;60.32;96703.50;5005615;28;20455;-57
2021/06/09 10:26:34;;;;;;;11.45;10.35;;;;;;;27.75;64.59;96707.41;5004614;28;20061;-57
2021/06/09 10:29:06;;;;;;;12.80;11.30;;;;;;;27.86;57.33;96710.06;5006977;28;20065;-51
2021/06/09 10:31:37;;;;;;;12.63;11.52;;;;;;;27.84;57.94;96700.53;5004308;28;20458;-57
2021/06/09 10:34:05;;;;;;;13.10;11.82;;;;;;;27.81;51.79;96701.84;5008891;28;20463;-59
2021/06/09 10:36:35;;;;;;;12.25;11.07;;;;;;;28.19;55.12;96694.81;5007044;28;20081;-58
2021/06/09 10:39:04;;;;;;;12.23;11.02;;;;;;;28.67;51.51;96698.69;5007187;28;20225;-58
2021/06/09 10:41:32;;;;;;;11.73;10.63;;;;;;;28.60;50.05;96687.19;5005569;28;20066;-54
2021/06/09 10:44:04;;;;;;;12.20;11.00;;;;;;;28.48;50.74;96691.94;5005093;28;20584;-58
2021/06/09 10:46:38;;;;;;;14.40;11.85;;;;;;;28.94;53.95;96687.84;5003444;28;20065;-59
2021/06/09 10:49:07;;;;;;;12.65;11.45;;;;;;;27.90;56.28;96685.97;5007664;28;20473;-58
2021/06/09 10:51:35;;;;;;;13.52;12.05;;;;;;;28.24;60.72;96677.75;5005714;28;20081;-58
2021/06/09 10:54:10;;;;;;;13.43;12.13;;;;;;;28.76;51.35;96680.84;5006842;28;20066;-57
2021/06/09 10:56:44;;;;;;;14.18;12.13;;;;;;;28.75;48.21;96665.66;5005765;28;20069;-58
2021/06/09 10:59:14;;;;;;;11.80;10.70;;;;;;;28.81;49.76;96659.19;5006282;28;20591;-58
2021/06/09 11:01:44;;;;;;;11.18;9.48;;;;;;;28.71;43.01;96661.00;5005639;28;20070;-59
2021/06/09 11:04:12;;;;;;;10.98;9.90;;;;;;;29.04;43.87;96649.13;5007843;28;20084;-58
2021/06/09 11:06:43;;;;;;;11.98;10.77;;;;;;;29.42;46.21;96644.53;5006993;28;20081;-59
2021/06/09 11:09:16;;;;;;;12.82;10.20;;;;;;;29.24;45.41;96648.47;4989919;28;20073;-58
2021/06/09 11:11:45;;;;;;;11.50;10.50;;;;;;;29.07;45.34;96643.16;5006489;28;20061;-55
2021/06/09 11:14:24;;;;;;;11.10;10.10;;;;;;;29.28;43.38;96636.00;5003376;28;20069;-59
2021/06/09 11:16:54;;;;;;;11.97;10.10;;;;;;;29.53;42.04;96633.50;5006679;28;20507;-58
2021/06/09 11:19:37;;;;;;;10.65;9.65;;;;;;;28.87;43.45;96632.91;5003802;28;20476;-58
2021/06/09 11:22:19;;;;;;;9.68;8.70;;;;;;;29.65;42.67;96632.50;5003870;28;20093;-58
2021/06/09 11:25:13;;;;;;;11.50;9.20;;;;;;;29.84;38.67;96632.91;5008059;28;20533;-60
2021/06/09 11:27:55;;;;;;;9.25;8.45;;;;;;;30.12;37.26;96629.78;4996583;28;21420;-58